sensor_id;sensor_type;location;lat;lon;timestamp;pressure;altitude;pressure_sealevel;temperature;humidity
73817;BME280;62146;53.232;-1.304;2023-05-02T00:00:27;101328.59;;;12.64;100.00
73817;BME280;62146;53.232;-1.304;2023-05-02T00:02:54;101333.34;;;12.62;100.00
73817;BME280;62146;53.232;-1.304;2023-05-02T00:05:21;101336.25;;;12.60;100.00
73817;BME280;62146;53.232;-1.304;2023-05-02T00:07:48;101327.69;;;12.58;100.00
73817;BME280;62146;53.232;-1.304;2023-05-02T00:10:15;101338.78;;;12.56;100.00
73817;BME280;62146;53.232;-1.304;2023-05-02T00:12:42;101339.38;;;12.57;100.00
73817;BME280;62146;53.232;-1.304;2023-05-02T00:15:09;101342.72;;;12.53;100.00
73817;BME280;62146;53.232;-1.304;2023-05-02T00:17:38;101338.41;;;12.52;100.00
73817;BME280;62146;53.232;-1.304;2023-05-02T00:20:06;101336.44;;;12.48;100.00
73817;BME280;62146;53.232;-1.304;2023-05-02T00:22:36;101334.25;;;12.45;100.00
73817;BME280;62146;53.232;-1.304;2023-05-02T00:25:03;101337.13;;;12.43;100.00
73817;BME280;62146;53.232;-1.304;2023-05-02T00:27:30;101341.66;;;12.43;100.00
73817;BME280;62146;53.232;-1.304;2023-05-02T00:29:59;101342.34;;;12.38;100.00
73817;BME280;62146;53.232;-1.304;2023-05-02T00:32:27;101345.00;;;12.38;100.00
73817;BME280;62146;53.232;-1.304;2023-05-02T00:34:54;101355.03;;;12.36;100.00
73817;BME280;62146;53.232;-1.304;2023-05-02T00:37:25;101351.81;;;12.34;100.00
73817;BME280;62146;53.232;-1.304;2023-05-02T00:39:51;101358.38;;;12.32;100.00
73817;BME280;62146;53.232;-1.304;2023-05-02T00:42:18;101364.97;;;12.30;100.00
73817;BME280;62146;53.232;-1.304;2023-05-02T00:44:44;101371.56;;;12.27;100.00
73817;BME280;62146;53.232;-1.304;2023-05-02T00:47:13;101366.69;;;12.24;100.00
73817;BME280;62146;53.232;-1.304;2023-05-02T00:49:40;101367.13;;;12.21;100.00
73817;BME280;62146;53.232;-1.304;2023-05-02T00:52:08;101362.88;;;12.20;100.00
73817;BME280;62146;53.232;-1.304;2023-05-02T00:54:36;101364.94;;;12.18;100.00
73817;BME280;62146;53.232;-1.304;2023-05-02T00:57:04;101365.16;;;12.17;100.00
73817;BME280;62146;53.232;-1.304;2023-05-02T00:59:33;101369.06;;;12.14;100.00
73817;BME280;62146;53.232;-1.304;2023-05-02T01:02:24;101373.03;;;12.12;100.00
73817;BME280;62146;53.232;-1.304;2023-05-02T01:04:58;101380.38;;;12.10;100.00
73817;BME280;62146;53.232;-1.304;2023-05-02T01:10:47;101377.59;;;12.05;100.00
73817;BME280;62146;53.232;-1.304;2023-05-02T01:13:17;101370.50;;;11.99;100.00
73817;BME280;62146;53.232;-1.304;2023-05-02T01:15:47;101375.50;;;11.96;100.00
73817;BME280;62146;53.232;-1.304;2023-05-02T01:18:19;101372.84;;;11.96;100.00
73817;BME280;62146;53.232;-1.304;2023-05-02T01:20:52;101376.94;;;11.92;100.00
73817;BME280;62146;53.232;-1.304;2023-05-02T01:28:59;101366.88;;;11.82;100.00
73817;BME280;62146;53.232;-1.304;2023-05-02T01:31:33;101368.94;;;11.80;100.00
73817;BME280;62146;53.232;-1.304;2023-05-02T01:34:00;101373.22;;;11.81;100.00
73817;BME280;62146;53.232;-1.304;2023-05-02T01:36:29;101381.28;;;11.75;100.00
73817;BME280;62146;53.232;-1.304;2023-05-02T01:38:58;101378.03;;;11.73;100.00
73817;BME280;62146;53.232;-1.304;2023-05-02T01:41:26;101376.63;;;11.71;100.00
73817;BME280;62146;53.232;-1.304;2023-05-02T01:43:56;101378.69;;;11.69;100.00
73817;BME280;62146;53.232;-1.304;2023-05-02T01:46:30;101381.56;;;11.67;100.00
73817;BME280;62146;53.232;-1.304;2023-05-02T01:49:01;101385.47;;;11.65;100.00
73817;BME280;62146;53.232;-1.304;2023-05-02T01:51:32;101382.44;;;11.61;100.00
73817;BME280;62146;53.232;-1.304;2023-05-02T01:54:04;101384.91;;;11.63;100.00
73817;BME280;62146;53.232;-1.304;2023-05-02T01:56:34;101388.00;;;11.60;100.00
73817;BME280;62146;53.232;-1.304;2023-05-02T01:59:05;101386.38;;;11.59;100.00
73817;BME280;62146;53.232;-1.304;2023-05-02T02:01:38;101384.38;;;11.54;100.00
73817;BME280;62146;53.232;-1.304;2023-05-02T02:04:08;101385.88;;;11.51;100.00
73817;BME280;62146;53.232;-1.304;2023-05-02T02:06:35;101384.03;;;11.51;100.00
73817;BME280;62146;53.232;-1.304;2023-05-02T02:09:02;101392.44;;;11.48;100.00
73817;BME280;62146;53.232;-1.304;2023-05-02T02:11:34;101390.56;;;11.49;100.00
73817;BME280;62146;53.232;-1.304;2023-05-02T02:14:07;101387.34;;;11.47;100.00
73817;BME280;62146;53.232;-1.304;2023-05-02T02:16:40;101399.78;;;11.46;100.00
73817;BME280;62146;53.232;-1.304;2023-05-02T02:19:09;101395.50;;;11.45;100.00
73817;BME280;62146;53.232;-1.304;2023-05-02T02:21:39;101397.78;;;11.42;100.00
73817;BME280;62146;53.232;-1.304;2023-05-02T02:24:08;101405.38;;;11.38;100.00
73817;BME280;62146;53.232;-1.304;2023-05-02T02:26:36;101408.88;;;11.39;100.00
73817;BME280;62146;53.232;-1.304;2023-05-02T02:29:03;101412.97;;;11.35;100.00
73817;BME280;62146;53.232;-1.304;2023-05-02T02:31:33;101415.63;;;11.35;100.00
73817;BME280;62146;53.232;-1.304;2023-05-02T02:34:02;101422.19;;;11.32;100.00
73817;BME280;62146;53.232;-1.304;2023-05-02T02:36:53;101426.88;;;11.30;100.00
73817;BME280;62146;53.232;-1.304;2023-05-02T02:39:38;101419.38;;;11.27;100.00
73817;BME280;62146;53.232;-1.304;2023-05-02T02:42:17;101424.50;;;11.23;100.00
73817;BME280;62146;53.232;-1.304;2023-05-02T02:45:03;101420.47;;;11.20;100.00
73817;BME280;62146;53.232;-1.304;2023-05-02T02:47:41;101426.78;;;11.19;100.00
73817;BME280;62146;53.232;-1.304;2023-05-02T02:50:39;101429.69;;;11.18;100.00
73817;BME280;62146;53.232;-1.304;2023-05-02T02:53:16;101428.50;;;11.14;100.00
73817;BME280;62146;53.232;-1.304;2023-05-02T02:55:56;101430.75;;;11.10;100.00
73817;BME280;62146;53.232;-1.304;2023-05-02T02:58:33;101435.03;;;11.11;100.00
73817;BME280;62146;53.232;-1.304;2023-05-02T03:01:04;101427.53;;;11.08;100.00
73817;BME280;62146;53.232;-1.304;2023-05-02T03:03:32;101434.06;;;11.06;100.00
73817;BME280;62146;53.232;-1.304;2023-05-02T03:06:00;101441.22;;;11.05;100.00
73817;BME280;62146;53.232;-1.304;2023-05-02T03:08:27;101437.16;;;11.03;100.00
73817;BME280;62146;53.232;-1.304;2023-05-02T03:10:53;101436.34;;;11.02;100.00
73817;BME280;62146;53.232;-1.304;2023-05-02T03:13:20;101433.47;;;11.04;100.00
73817;BME280;62146;53.232;-1.304;2023-05-02T03:18:19;101440.03;;;11.01;100.00
73817;BME280;62146;53.232;-1.304;2023-05-02T03:20:46;101444.75;;;10.99;100.00
73817;BME280;62146;53.232;-1.304;2023-05-02T03:23:12;101437.19;;;10.96;100.00
73817;BME280;62146;53.232;-1.304;2023-05-02T03:25:39;101447.47;;;10.93;100.00
73817;BME280;62146;53.232;-1.304;2023-05-02T03:28:05;101446.63;;;10.93;100.00
73817;BME280;62146;53.232;-1.304;2023-05-02T03:30:32;101452.16;;;10.91;100.00
73817;BME280;62146;53.232;-1.304;2023-05-02T03:32:59;101448.69;;;10.91;100.00
73817;BME280;62146;53.232;-1.304;2023-05-02T03:35:27;101453.19;;;10.90;100.00
73817;BME280;62146;53.232;-1.304;2023-05-02T03:37:53;101451.41;;;10.84;100.00
73817;BME280;62146;53.232;-1.304;2023-05-02T03:40:20;101455.69;;;10.85;100.00
73817;BME280;62146;53.232;-1.304;2023-05-02T03:42:47;101463.03;;;10.83;100.00
73817;BME280;62146;53.232;-1.304;2023-05-02T03:45:13;101462.22;;;10.83;100.00
73817;BME280;62146;53.232;-1.304;2023-05-02T03:47:40;101464.28;;;10.81;100.00
73817;BME280;62146;53.232;-1.304;2023-05-02T03:50:07;101465.53;;;10.78;100.00
73817;BME280;62146;53.232;-1.304;2023-05-02T03:52:34;101466.53;;;10.77;100.00
73817;BME280;62146;53.232;-1.304;2023-05-02T03:55:01;101468.84;;;10.74;100.00
73817;BME280;62146;53.232;-1.304;2023-05-02T03:57:30;101476.78;;;10.74;100.00
73817;BME280;62146;53.232;-1.304;2023-05-02T03:59:57;101482.31;;;10.72;100.00
73817;BME280;62146;53.232;-1.304;2023-05-02T04:02:24;101478.84;;;10.72;100.00
73817;BME280;62146;53.232;-1.304;2023-05-02T04:04:51;101473.75;;;10.70;100.00
73817;BME280;62146;53.232;-1.304;2023-05-02T04:07:17;101474.56;;;10.71;100.00
73817;BME280;62146;53.232;-1.304;2023-05-02T04:09:45;101469.69;;;10.68;100.00
73817;BME280;62146;53.232;-1.304;2023-05-02T04:12:13;101475.78;;;10.69;100.00
73817;BME280;62146;53.232;-1.304;2023-05-02T04:14:41;101477.03;;;10.66;100.00
73817;BME280;62146;53.232;-1.304;2023-05-02T04:17:07;101481.53;;;10.66;100.00
73817;BME280;62146;53.232;-1.304;2023-05-02T04:19:34;101477.25;;;10.65;100.00
73817;BME280;62146;53.232;-1.304;2023-05-02T04:22:01;101483.59;;;10.64;100.00
73817;BME280;62146;53.232;-1.304;2023-05-02T04:24:28;101477.66;;;10.62;100.00
73817;BME280;62146;53.232;-1.304;2023-05-02T04:26:55;101478.69;;;10.61;100.00
73817;BME280;62146;53.232;-1.304;2023-05-02T04:29:21;101473.41;;;10.61;100.00
73817;BME280;62146;53.232;-1.304;2023-05-02T04:31:48;101473.81;;;10.58;100.00
73817;BME280;62146;53.232;-1.304;2023-05-02T04:34:17;101479.13;;;10.58;100.00
73817;BME280;62146;53.232;-1.304;2023-05-02T04:36:46;101472.19;;;10.57;100.00
73817;BME280;62146;53.232;-1.304;2023-05-02T04:39:13;101478.97;;;10.53;100.00
73817;BME280;62146;53.232;-1.304;2023-05-02T04:41:39;101482.22;;;10.55;100.00
73817;BME280;62146;53.232;-1.304;2023-05-02T04:44:06;101480.56;;;10.54;100.00
73817;BME280;62146;53.232;-1.304;2023-05-02T04:46:33;101480.56;;;10.54;100.00
73817;BME280;62146;53.232;-1.304;2023-05-02T04:49:00;101493.03;;;10.53;100.00
73817;BME280;62146;53.232;-1.304;2023-05-02T04:51:26;101486.28;;;10.51;100.00
73817;BME280;62146;53.232;-1.304;2023-05-02T04:53:54;101491.41;;;10.52;100.00
73817;BME280;62146;53.232;-1.304;2023-05-02T04:56:20;101493.25;;;10.52;100.00
73817;BME280;62146;53.232;-1.304;2023-05-02T04:58:47;101490.59;;;10.52;100.00
73817;BME280;62146;53.232;-1.304;2023-05-02T05:01:14;101502.22;;;10.51;100.00
73817;BME280;62146;53.232;-1.304;2023-05-02T05:03:40;101510.16;;;10.51;100.00
73817;BME280;62146;53.232;-1.304;2023-05-02T05:06:07;101503.84;;;10.52;100.00
73817;BME280;62146;53.232;-1.304;2023-05-02T05:08:33;101506.72;;;10.50;100.00
73817;BME280;62146;53.232;-1.304;2023-05-02T05:11:00;101503.66;;;10.47;100.00
73817;BME280;62146;53.232;-1.304;2023-05-02T05:13:27;101508.97;;;10.47;100.00
73817;BME280;62146;53.232;-1.304;2023-05-02T05:15:53;101509.81;;;10.47;100.00
73817;BME280;62146;53.232;-1.304;2023-05-02T05:18:20;101516.09;;;10.46;100.00
73817;BME280;62146;53.232;-1.304;2023-05-02T05:20:47;101521.22;;;10.48;100.00
73817;BME280;62146;53.232;-1.304;2023-05-02T05:23:13;101521.22;;;10.48;100.00
73817;BME280;62146;53.232;-1.304;2023-05-02T05:25:40;101523.88;;;10.48;100.00
73817;BME280;62146;53.232;-1.304;2023-05-02T05:28:10;101527.53;;;10.47;100.00
73817;BME280;62146;53.232;-1.304;2023-05-02T05:30:38;101533.44;;;10.49;100.00
73817;BME280;62146;53.232;-1.304;2023-05-02T05:33:04;101528.72;;;10.51;100.00
73817;BME280;62146;53.232;-1.304;2023-05-02T05:35:31;101533.84;;;10.52;100.00
73817;BME280;62146;53.232;-1.304;2023-05-02T05:37:58;101521.00;;;10.49;100.00
73817;BME280;62146;53.232;-1.304;2023-05-02T05:40:24;101523.22;;;10.52;100.00
73817;BME280;62146;53.232;-1.304;2023-05-02T05:42:51;101518.50;;;10.54;100.00
73817;BME280;62146;53.232;-1.304;2023-05-02T05:45:17;101520.16;;;10.55;100.00
73817;BME280;62146;53.232;-1.304;2023-05-02T05:47:45;101526.47;;;10.54;100.00
73817;BME280;62146;53.232;-1.304;2023-05-02T05:50:11;101530.56;;;10.57;100.00
73817;BME280;62146;53.232;-1.304;2023-05-02T05:52:38;101527.09;;;10.56;100.00
73817;BME280;62146;53.232;-1.304;2023-05-02T05:55:05;101534.81;;;10.58;100.00
73817;BME280;62146;53.232;-1.304;2023-05-02T05:57:32;101534.41;;;10.61;100.00
73817;BME280;62146;53.232;-1.304;2023-05-02T05:59:59;101535.84;;;10.63;100.00
73817;BME280;62146;53.232;-1.304;2023-05-02T06:02:26;101539.88;;;10.66;100.00
73817;BME280;62146;53.232;-1.304;2023-05-02T06:04:52;101543.97;;;10.68;100.00
73817;BME280;62146;53.232;-1.304;2023-05-02T06:07:19;101547.00;;;10.71;100.00
73817;BME280;62146;53.232;-1.304;2023-05-02T06:09:45;101553.28;;;10.77;100.00
73817;BME280;62146;53.232;-1.304;2023-05-02T06:12:12;101551.66;;;10.82;100.00
73817;BME280;62146;53.232;-1.304;2023-05-02T06:14:38;101556.72;;;10.84;100.00
73817;BME280;62146;53.232;-1.304;2023-05-02T06:17:05;101556.53;;;10.85;100.00
73817;BME280;62146;53.232;-1.304;2023-05-02T06:19:32;101555.28;;;10.88;100.00
73817;BME280;62146;53.232;-1.304;2023-05-02T06:21:59;101557.72;;;10.89;100.00
73817;BME280;62146;53.232;-1.304;2023-05-02T06:24:25;101558.31;;;10.91;100.00
73817;BME280;62146;53.232;-1.304;2023-05-02T06:26:52;101564.25;;;10.93;100.00
73817;BME280;62146;53.232;-1.304;2023-05-02T06:29:18;101568.50;;;10.94;100.00
73817;BME280;62146;53.232;-1.304;2023-05-02T06:31:45;101569.91;;;10.96;100.00
73817;BME280;62146;53.232;-1.304;2023-05-02T06:34:11;101568.47;;;11.00;100.00
73817;BME280;62146;53.232;-1.304;2023-05-02T06:36:38;101562.72;;;11.03;100.00
73817;BME280;62146;53.232;-1.304;2023-05-02T06:39:04;101575.56;;;11.06;100.00
73817;BME280;62146;53.232;-1.304;2023-05-02T06:41:31;101569.22;;;11.07;100.00
73817;BME280;62146;53.232;-1.304;2023-05-02T06:43:58;101560.03;;;11.10;100.00
73817;BME280;62146;53.232;-1.304;2023-05-02T06:46:27;101570.22;;;11.13;100.00
73817;BME280;62146;53.232;-1.304;2023-05-02T06:48:55;101578.78;;;11.15;100.00
73817;BME280;62146;53.232;-1.304;2023-05-02T06:51:21;101584.09;;;11.15;100.00
73817;BME280;62146;53.232;-1.304;2023-05-02T06:53:48;101583.66;;;11.18;100.00
73817;BME280;62146;53.232;-1.304;2023-05-02T06:56:14;101584.88;;;11.22;100.00
73817;BME280;62146;53.232;-1.304;2023-05-02T06:58:41;101579.94;;;11.25;100.00
73817;BME280;62146;53.232;-1.304;2023-05-02T07:01:08;101586.44;;;11.29;100.00
73817;BME280;62146;53.232;-1.304;2023-05-02T07:03:34;101585.81;;;11.33;100.00
73817;BME280;62146;53.232;-1.304;2023-05-02T07:06:01;101585.38;;;11.36;100.00
73817;BME280;62146;53.232;-1.304;2023-05-02T07:08:27;101595.38;;;11.41;100.00
73817;BME280;62146;53.232;-1.304;2023-05-02T07:10:54;101591.50;;;11.43;100.00
73817;BME280;62146;53.232;-1.304;2023-05-02T07:13:20;101599.63;;;11.48;100.00
73817;BME280;62146;53.232;-1.304;2023-05-02T07:15:47;101595.50;;;11.52;100.00
73817;BME280;62146;53.232;-1.304;2023-05-02T07:18:14;101609.56;;;11.59;100.00
73817;BME280;62146;53.232;-1.304;2023-05-02T07:20:40;101606.25;;;11.63;100.00
73817;BME280;62146;53.232;-1.304;2023-05-02T07:23:07;101611.72;;;11.68;100.00
73817;BME280;62146;53.232;-1.304;2023-05-02T07:25:34;101613.72;;;11.73;100.00
73817;BME280;62146;53.232;-1.304;2023-05-02T07:28:02;101606.94;;;11.77;100.00
73817;BME280;62146;53.232;-1.304;2023-05-02T07:30:29;101617.75;;;11.81;100.00
73817;BME280;62146;53.232;-1.304;2023-05-02T07:32:55;101621.38;;;11.87;100.00
73817;BME280;62146;53.232;-1.304;2023-05-02T07:35:22;101622.34;;;11.92;100.00
73817;BME280;62146;53.232;-1.304;2023-05-02T07:37:48;101612.91;;;11.96;100.00
73817;BME280;62146;53.232;-1.304;2023-05-02T07:40:15;101616.28;;;12.03;100.00
73817;BME280;62146;53.232;-1.304;2023-05-02T07:42:42;101615.66;;;12.07;100.00
73817;BME280;62146;53.232;-1.304;2023-05-02T07:45:09;101613.97;;;12.13;100.00
73817;BME280;62146;53.232;-1.304;2023-05-02T07:47:36;101611.00;;;12.21;100.00
73817;BME280;62146;53.232;-1.304;2023-05-02T07:50:03;101625.06;;;12.28;100.00
73817;BME280;62146;53.232;-1.304;2023-05-02T07:52:30;101625.19;;;12.32;100.00
73817;BME280;62146;53.232;-1.304;2023-05-02T07:54:56;101625.94;;;12.39;100.00
73817;BME280;62146;53.232;-1.304;2023-05-02T07:57:23;101625.06;;;12.45;100.00
73817;BME280;62146;53.232;-1.304;2023-05-02T07:59:49;101626.84;;;12.51;100.00
73817;BME280;62146;53.232;-1.304;2023-05-02T08:02:16;101620.63;;;12.57;100.00
73817;BME280;62146;53.232;-1.304;2023-05-02T08:04:46;101629.34;;;12.64;100.00
73817;BME280;62146;53.232;-1.304;2023-05-02T08:07:13;101629.28;;;12.70;100.00
73817;BME280;62146;53.232;-1.304;2023-05-02T08:09:39;101635.59;;;12.76;100.00
73817;BME280;62146;53.232;-1.304;2023-05-02T08:12:06;101630.97;;;12.83;100.00
73817;BME280;62146;53.232;-1.304;2023-05-02T08:14:32;101631.72;;;12.89;100.00
73817;BME280;62146;53.232;-1.304;2023-05-02T08:16:59;101627.38;;;12.95;100.00
73817;BME280;62146;53.232;-1.304;2023-05-02T08:19:26;101627.25;;;13.01;100.00
73817;BME280;62146;53.232;-1.304;2023-05-02T08:21:53;101628.00;;;13.08;100.00
73817;BME280;62146;53.232;-1.304;2023-05-02T08:24:21;101627.91;;;13.14;100.00
73817;BME280;62146;53.232;-1.304;2023-05-02T08:26:47;101621.44;;;13.22;100.00
73817;BME280;62146;53.232;-1.304;2023-05-02T08:29:14;101619.47;;;13.29;100.00
73817;BME280;62146;53.232;-1.304;2023-05-02T08:31:41;101620.81;;;13.38;100.00
73817;BME280;62146;53.232;-1.304;2023-05-02T08:34:08;101623.34;;;13.44;100.00
73817;BME280;62146;53.232;-1.304;2023-05-02T08:36:35;101623.84;;;13.52;100.00
73817;BME280;62146;53.232;-1.304;2023-05-02T08:39:02;101621.88;;;13.59;100.00
73817;BME280;62146;53.232;-1.304;2023-05-02T08:41:29;101629.56;;;13.67;100.00
73817;BME280;62146;53.232;-1.304;2023-05-02T08:43:58;101632.72;;;13.75;100.00
73817;BME280;62146;53.232;-1.304;2023-05-02T08:46:25;101626.22;;;13.83;100.00
73817;BME280;62146;53.232;-1.304;2023-05-02T08:48:54;101635.25;;;13.93;100.00
73817;BME280;62146;53.232;-1.304;2023-05-02T08:51:24;101628.59;;;14.02;100.00
73817;BME280;62146;53.232;-1.304;2023-05-02T08:53:51;101629.03;;;14.10;100.00
73817;BME280;62146;53.232;-1.304;2023-05-02T08:56:18;101636.25;;;14.21;100.00
73817;BME280;62146;53.232;-1.304;2023-05-02T08:58:44;101627.63;;;14.30;100.00
73817;BME280;62146;53.232;-1.304;2023-05-02T09:01:16;101627.28;;;14.38;100.00
73817;BME280;62146;53.232;-1.304;2023-05-02T09:03:45;101631.44;;;14.46;100.00
73817;BME280;62146;53.232;-1.304;2023-05-02T09:06:19;101640.72;;;14.54;100.00
73817;BME280;62146;53.232;-1.304;2023-05-02T09:08:50;101637.94;;;14.61;100.00
73817;BME280;62146;53.232;-1.304;2023-05-02T09:11:20;101642.34;;;14.67;100.00
73817;BME280;62146;53.232;-1.304;2023-05-02T09:13:47;101639.31;;;14.74;100.00
73817;BME280;62146;53.232;-1.304;2023-05-02T09:16:22;101648.81;;;14.82;100.00
73817;BME280;62146;53.232;-1.304;2023-05-02T09:18:53;101642.50;;;14.88;100.00
73817;BME280;62146;53.232;-1.304;2023-05-02T09:21:25;101646.66;;;14.95;100.00
73817;BME280;62146;53.232;-1.304;2023-05-02T09:23:54;101644.41;;;15.03;100.00
73817;BME280;62146;53.232;-1.304;2023-05-02T09:26:28;101649.41;;;15.11;100.00
73817;BME280;62146;53.232;-1.304;2023-05-02T09:29:02;101635.13;;;15.17;100.00
73817;BME280;62146;53.232;-1.304;2023-05-02T09:31:31;101636.94;;;15.28;100.00
73817;BME280;62146;53.232;-1.304;2023-05-02T09:34:10;101628.94;;;15.44;100.00
73817;BME280;62146;53.232;-1.304;2023-05-02T09:36:39;101633.47;;;15.60;100.00
73817;BME280;62146;53.232;-1.304;2023-05-02T09:39:18;101635.69;;;15.79;100.00
73817;BME280;62146;53.232;-1.304;2023-05-02T09:41:49;101635.44;;;15.97;100.00
73817;BME280;62146;53.232;-1.304;2023-05-02T09:44:18;101641.63;;;16.13;100.00
73817;BME280;62146;53.232;-1.304;2023-05-02T09:46:49;101642.50;;;16.35;100.00
73817;BME280;62146;53.232;-1.304;2023-05-02T09:49:16;101638.69;;;16.52;100.00
73817;BME280;62146;53.232;-1.304;2023-05-02T09:51:48;101635.41;;;16.66;100.00
73817;BME280;62146;53.232;-1.304;2023-05-02T09:54:34;101637.50;;;16.81;100.00
73817;BME280;62146;53.232;-1.304;2023-05-02T09:57:03;101645.41;;;16.92;100.00
73817;BME280;62146;53.232;-1.304;2023-05-02T09:59:32;101638.78;;;16.99;100.00
73817;BME280;62146;53.232;-1.304;2023-05-02T10:02:04;101640.78;;;17.09;100.00
73817;BME280;62146;53.232;-1.304;2023-05-02T10:04:33;101642.50;;;17.15;100.00
73817;BME280;62146;53.232;-1.304;2023-05-02T10:07:01;101637.75;;;17.21;100.00
73817;BME280;62146;53.232;-1.304;2023-05-02T10:09:29;101642.38;;;17.31;100.00
73817;BME280;62146;53.232;-1.304;2023-05-02T10:12:00;101646.22;;;17.40;100.00
73817;BME280;62146;53.232;-1.304;2023-05-02T10:14:30;101646.59;;;17.48;100.00
73817;BME280;62146;53.232;-1.304;2023-05-02T10:17:08;101643.19;;;17.57;100.00
73817;BME280;62146;53.232;-1.304;2023-05-02T10:19:44;101640.03;;;17.65;100.00
73817;BME280;62146;53.232;-1.304;2023-05-02T10:22:14;101652.19;;;17.72;100.00
73817;BME280;62146;53.232;-1.304;2023-05-02T10:24:47;101649.31;;;17.79;100.00
73817;BME280;62146;53.232;-1.304;2023-05-02T10:27:14;101652.56;;;17.86;100.00
73817;BME280;62146;53.232;-1.304;2023-05-02T10:29:41;101660.97;;;17.94;100.00
73817;BME280;62146;53.232;-1.304;2023-05-02T10:32:08;101663.75;;;18.04;100.00
73817;BME280;62146;53.232;-1.304;2023-05-02T10:34:38;101670.28;;;18.13;100.00
73817;BME280;62146;53.232;-1.304;2023-05-02T10:37:05;101667.94;;;18.21;100.00
73817;BME280;62146;53.232;-1.304;2023-05-02T10:39:32;101670.13;;;18.29;100.00
73817;BME280;62146;53.232;-1.304;2023-05-02T10:42:00;101678.50;;;18.37;100.00
73817;BME280;62146;53.232;-1.304;2023-05-02T10:46:59;101672.75;;;18.60;100.00
73817;BME280;62146;53.232;-1.304;2023-05-02T10:49:26;101683.56;;;18.70;100.00
73817;BME280;62146;53.232;-1.304;2023-05-02T10:51:55;101678.75;;;18.77;100.00
73817;BME280;62146;53.232;-1.304;2023-05-02T10:54:23;101685.00;;;18.87;100.00
73817;BME280;62146;53.232;-1.304;2023-05-02T11:01:57;101685.91;;;19.07;100.00
73817;BME280;62146;53.232;-1.304;2023-05-02T11:04:24;101682.69;;;19.10;100.00
73817;BME280;62146;53.232;-1.304;2023-05-02T11:11:54;101679.75;;;19.16;100.00
73817;BME280;62146;53.232;-1.304;2023-05-02T11:19:26;101675.72;;;19.19;100.00
73817;BME280;62146;53.232;-1.304;2023-05-02T11:24:46;101671.69;;;19.21;100.00
73817;BME280;62146;53.232;-1.304;2023-05-02T11:30:07;101666.03;;;19.23;100.00
73817;BME280;62146;53.232;-1.304;2023-05-02T11:35:18;101676.56;;;19.24;100.00
73817;BME280;62146;53.232;-1.304;2023-05-02T11:37:59;101674.94;;;19.23;100.00
73817;BME280;62146;53.232;-1.304;2023-05-02T11:40:27;101676.84;;;19.28;100.00
73817;BME280;62146;53.232;-1.304;2023-05-02T11:42:56;101678.19;;;19.30;100.00
73817;BME280;62146;53.232;-1.304;2023-05-02T11:45:36;101687.63;;;19.37;100.00
73817;BME280;62146;53.232;-1.304;2023-05-02T11:48:06;101691.69;;;19.45;100.00
73817;BME280;62146;53.232;-1.304;2023-05-02T11:50:38;101686.56;;;19.48;100.00
73817;BME280;62146;53.232;-1.304;2023-05-02T11:53:18;101690.91;;;19.64;100.00
73817;BME280;62146;53.232;-1.304;2023-05-02T11:55:50;101704.72;;;19.77;100.00
73817;BME280;62146;53.232;-1.304;2023-05-02T11:58:19;101699.03;;;19.84;100.00
73817;BME280;62146;53.232;-1.304;2023-05-02T12:00:46;101704.69;;;19.87;100.00
73817;BME280;62146;53.232;-1.304;2023-05-02T12:06:00;101689.91;;;19.85;100.00
73817;BME280;62146;53.232;-1.304;2023-05-02T12:08:35;101687.75;;;19.82;100.00
73817;BME280;62146;53.232;-1.304;2023-05-02T12:11:02;101683.97;;;19.78;100.00
73817;BME280;62146;53.232;-1.304;2023-05-02T12:13:29;101689.88;;;19.75;100.00
73817;BME280;62146;53.232;-1.304;2023-05-02T12:15:56;101699.06;;;19.74;100.00
73817;BME280;62146;53.232;-1.304;2023-05-02T12:18:24;101696.88;;;19.71;100.00
73817;BME280;62146;53.232;-1.304;2023-05-02T12:20:53;101695.50;;;19.68;100.00
73817;BME280;62146;53.232;-1.304;2023-05-02T12:23:22;101701.97;;;19.67;100.00
73817;BME280;62146;53.232;-1.304;2023-05-02T12:25:49;101701.44;;;19.65;100.00
73817;BME280;62146;53.232;-1.304;2023-05-02T12:28:18;101690.09;;;19.63;100.00
73817;BME280;62146;53.232;-1.304;2023-05-02T12:30:47;101694.13;;;19.61;100.00
73817;BME280;62146;53.232;-1.304;2023-05-02T12:33:14;101700.88;;;19.58;100.00
73817;BME280;62146;53.232;-1.304;2023-05-02T12:35:42;101695.22;;;19.55;100.00
73817;BME280;62146;53.232;-1.304;2023-05-02T12:38:19;101687.41;;;19.54;100.00
73817;BME280;62146;53.232;-1.304;2023-05-02T12:40:50;101683.88;;;19.48;100.00
73817;BME280;62146;53.232;-1.304;2023-05-02T12:43:17;101687.66;;;19.47;100.00
73817;BME280;62146;53.232;-1.304;2023-05-02T12:45:44;101687.91;;;19.46;100.00
73817;BME280;62146;53.232;-1.304;2023-05-02T12:48:25;101697.63;;;19.47;100.00
73817;BME280;62146;53.232;-1.304;2023-05-02T12:50:53;101695.72;;;19.47;100.00
73817;BME280;62146;53.232;-1.304;2023-05-02T12:53:42;101688.47;;;19.48;100.00
73817;BME280;62146;53.232;-1.304;2023-05-02T12:56:10;101688.19;;;19.49;100.00
73817;BME280;62146;53.232;-1.304;2023-05-02T12:58:41;101693.03;;;19.52;100.00
73817;BME280;62146;53.232;-1.304;2023-05-02T13:01:09;101700.31;;;19.57;100.00
73817;BME280;62146;53.232;-1.304;2023-05-02T13:03:36;101705.16;;;19.59;100.00
73817;BME280;62146;53.232;-1.304;2023-05-02T13:06:03;101707.06;;;19.64;100.00
73817;BME280;62146;53.232;-1.304;2023-05-02T13:08:31;101709.78;;;19.69;100.00
73817;BME280;62146;53.232;-1.304;2023-05-02T13:10:58;101708.72;;;19.75;100.00
73817;BME280;62146;53.232;-1.304;2023-05-02T13:13:25;101710.38;;;19.81;100.00
73817;BME280;62146;53.232;-1.304;2023-05-02T13:15:51;101707.69;;;19.86;100.00
73817;BME280;62146;53.232;-1.304;2023-05-02T13:18:18;101713.06;;;19.90;100.00